Terminal Aerodrome Forecast
Issued by NWS Pueblo, CO

Home | Current Version | Previous Version | Text Only | Print | Product List | Glossary On
Versions: 1 2 3 4 5 6 7 8 9 10 11 12 13 14 15 16 17 18 19 20 21 22 23 24 25 26 27 28 29 30 31 32 33 34 35 36 37 38 39 40 41 42 43 44 45 46 47 48 49 50
000
FTUS45 KPUB 042330
TAFCOS
TAF
KCOS 042330Z 0500/0524 18008KT 5SM -SN BR BKN020 OVC030
      TEMPO 0500/0501 1SM -SN BR
     FM050200 16007KT P6SM VCSH BKN018 BKN030
     FM050300 VRB05KT P6SM SCT018 BKN030
     FM050700 35006KT P6SM SKC
     FM051900 18007KT P6SM SCT200=

USA.gov is the U.S. government's official web portal to all federal, state and local government web resources and services.